Terminal Aerodrome Forecast
Issued by NWS

Home | Current Version | Previous Version | Graphics & Text | Print | Product List | Glossary On
Versions: 1 2 3 4 5 6 7 8 9 10 11 12 13 14 15 16 17 18 19
000
FTUS43 KBIS 042208 AAB
TAFDIK
TAF AMD
KDIK 042208Z 0422/0518 18012KT P6SM SCT100
      TEMPO 0501/0503 -TSRA SCT060CB BKN100
     FM050300 12008KT P6SM SCT050 SCT100
     FM050600 03008KT P6SM SCT020 BKN100
     FM051400 01015KT P6SM -SHRA VCTS SCT035 BKN060CB=

USA.gov is the U.S. government's official web portal to all federal, state and local government web resources and services.